createdAt,value
2023-10-13T00:02:53.977Z,15.84
2023-10-13T00:06:01.763Z,15.43
2023-10-13T00:09:05.464Z,15.31
2023-10-13T00:12:15.106Z,15.28
2023-10-13T00:15:19.028Z,15.18
2023-10-13T00:18:22.086Z,15.22
2023-10-13T00:21:34.367Z,15.47
2023-10-13T00:24:44.567Z,15.22
2023-10-13T00:27:53.115Z,15.88
2023-10-13T00:31:02.493Z,16.04
2023-10-13T00:34:31.143Z,15.60
2023-10-13T00:37:42.579Z,15.95
2023-10-13T00:40:52.747Z,15.64
2023-10-13T00:44:10.130Z,15.70
2023-10-13T00:47:23.869Z,15.90
2023-10-13T00:50:26.611Z,15.90
2023-10-13T00:53:30.119Z,16.09
2023-10-13T00:56:32.544Z,15.67
2023-10-13T00:59:37.366Z,16.42
2023-10-13T01:02:40.115Z,16.03
2023-10-13T01:05:43.941Z,15.87
2023-10-13T01:08:53.015Z,16.00
2023-10-13T01:11:56.390Z,16.16
2023-10-13T01:15:00.772Z,16.00
2023-10-13T01:18:14.578Z,15.91
2023-10-13T01:21:21.251Z,15.93
2023-10-13T01:24:27.166Z,15.91
2023-10-13T01:27:29.692Z,15.85
2023-10-13T01:30:32.140Z,15.85
2023-10-13T01:33:36.072Z,15.75
2023-10-13T01:36:41.512Z,16.16
2023-10-13T01:39:48.406Z,15.65
2023-10-13T01:42:56.601Z,15.53
2023-10-13T01:45:59.280Z,15.69
2023-10-13T01:49:03.920Z,15.84
2023-10-13T01:52:06.566Z,15.49
2023-10-13T01:55:12.734Z,15.51
2023-10-13T01:58:16.493Z,15.50
2023-10-13T02:01:28.295Z,15.46
2023-10-13T02:04:35.521Z,15.48
2023-10-13T02:07:39.980Z,15.35
2023-10-13T02:10:44.526Z,15.27
2023-10-13T02:13:51.391Z,15.32
2023-10-13T02:17:13.020Z,15.22
2023-10-13T02:20:16.702Z,15.24
2023-10-13T02:23:19.102Z,15.09
2023-10-13T02:26:31.866Z,15.01
2023-10-13T02:29:40.669Z,15.03
2023-10-13T02:32:45.261Z,14.99
2023-10-13T02:35:57.513Z,14.83
2023-10-13T02:39:00.594Z,14.77
2023-10-13T02:42:08.123Z,14.72
2023-10-13T02:45:13.389Z,14.72
2023-10-13T02:48:18.707Z,14.73
2023-10-13T02:51:26.865Z,14.70
2023-10-13T02:54:32.502Z,14.47
2023-10-13T02:57:35.879Z,14.51
2023-10-13T03:00:41.771Z,14.48
2023-10-13T03:03:51.814Z,14.87
2023-10-13T03:06:54.269Z,14.92
2023-10-13T03:10:01.245Z,15.10
2023-10-13T03:13:04.048Z,14.40
2023-10-13T03:16:20.821Z,14.33
2023-10-13T03:19:24.118Z,14.35
2023-10-13T03:22:33.977Z,14.38
2023-10-13T03:25:43.901Z,14.56
2023-10-13T03:28:52.665Z,14.72
2023-10-13T03:32:08.039Z,14.70
2023-10-13T03:35:25.036Z,14.52
2023-10-13T03:38:28.568Z,14.53
2023-10-13T03:41:31.660Z,14.47
2023-10-13T03:44:39.248Z,14.76
2023-10-13T03:47:43.823Z,14.31
2023-10-13T03:51:05.157Z,14.34
2023-10-13T03:54:10.788Z,14.88
2023-10-13T03:57:13.741Z,14.41
2023-10-13T04:00:22.612Z,14.52
2023-10-13T04:03:34.270Z,14.67
2023-10-13T04:06:48.743Z,14.78
2023-10-13T04:09:51.369Z,15.14
2023-10-13T04:13:31.701Z,14.92
2023-10-13T04:16:34.216Z,14.89
2023-10-13T04:19:56.642Z,14.53
2023-10-13T04:22:59.059Z,14.93
2023-10-13T04:26:10.818Z,15.01
2023-10-13T04:29:28.887Z,14.94
2023-10-13T04:32:39.399Z,14.91
2023-10-13T04:35:49.092Z,15.04
2023-10-13T04:38:57.900Z,14.99
2023-10-13T04:42:12.170Z,15.04
2023-10-13T04:45:37.483Z,15.12
2023-10-13T04:48:42.620Z,15.17
2023-10-13T04:51:59.082Z,15.08
2023-10-13T04:55:11.595Z,15.00
2023-10-13T04:58:36.731Z,14.88
2023-10-13T05:02:11.095Z,14.95
2023-10-13T05:05:15.393Z,14.49
2023-10-13T05:08:35.969Z,14.25
2023-10-13T05:11:56.634Z,14.33
2023-10-13T05:15:17.405Z,14.38
2023-10-13T05:18:38.068Z,14.49
2023-10-13T05:21:58.825Z,14.49
2023-10-13T05:25:19.758Z,14.58
2023-10-13T05:28:40.475Z,14.52
2023-10-13T05:32:01.188Z,14.72
2023-10-13T05:35:22.957Z,14.78
2023-10-13T05:38:43.810Z,14.58
2023-10-13T05:42:04.730Z,15.12
2023-10-13T05:45:19.517Z,15.36
2023-10-13T05:48:35.614Z,15.95
2023-10-13T05:51:41.259Z,15.83
2023-10-13T05:55:01.854Z,16.08
2023-10-13T05:58:24.710Z,16.25
2023-10-13T06:01:45.423Z,16.08
2023-10-13T06:05:06.552Z,15.86
2023-10-13T06:08:27.485Z,15.84
2023-10-13T06:11:48.256Z,15.82
2023-10-13T06:15:09.258Z,15.75
2023-10-13T06:18:30.363Z,15.63
2023-10-13T06:21:51.196Z,15.86
2023-10-13T06:25:11.966Z,16.45
2023-10-13T06:28:32.694Z,16.35
2023-10-13T06:31:35.926Z,16.27
2023-10-13T06:34:48.735Z,16.28
2023-10-13T06:37:52.637Z,16.29
2023-10-13T06:40:57.725Z,16.23
2023-10-13T06:44:06.520Z,16.53
2023-10-13T06:47:09.298Z,17.30
2023-10-13T06:50:20.748Z,21.00
2023-10-13T06:53:24.833Z,18.53
2023-10-13T06:56:29.200Z,20.58
2023-10-13T06:59:34.009Z,20.95
2023-10-13T07:02:36.496Z,21.83
2023-10-13T07:05:40.490Z,22.76
2023-10-13T07:08:43.972Z,18.76
2023-10-13T07:11:46.335Z,18.16
2023-10-13T07:14:53.439Z,18.69
2023-10-13T07:18:00.436Z,18.75
2023-10-13T07:21:10.751Z,18.44
2023-10-13T07:24:15.085Z,18.17
2023-10-13T07:27:24.127Z,18.45
2023-10-13T07:30:32.068Z,18.53
2023-10-13T07:33:34.504Z,18.73
2023-10-13T07:36:40.775Z,18.84
2023-10-13T07:39:45.898Z,19.24
2023-10-13T07:42:48.453Z,21.77
2023-10-13T07:45:59.962Z,27.63
2023-10-13T07:49:16.504Z,29.56
2023-10-13T07:52:22.446Z,30.03
2023-10-13T07:55:26.293Z,30.36
2023-10-13T07:58:28.819Z,31.34
2023-10-13T08:01:31.687Z,31.49
2023-10-13T08:04:36.565Z,27.18
2023-10-13T08:07:41.193Z,25.73
2023-10-13T08:10:46.597Z,29.16
2023-10-13T08:14:03.394Z,32.52
2023-10-13T08:17:14.105Z,29.48
2023-10-13T08:20:18.375Z,28.47
2023-10-13T08:23:35.723Z,28.33
2023-10-13T08:26:38.154Z,32.82
2023-10-13T08:29:55.830Z,25.08
2023-10-13T08:33:00.204Z,23.39
2023-10-13T08:36:19.567Z,23.71
2023-10-13T08:39:45.152Z,23.46
2023-10-13T08:42:48.348Z,23.70
2023-10-13T08:45:52.391Z,24.21
2023-10-13T08:49:16.033Z,24.34
2023-10-13T08:52:47.117Z,28.98
2023-10-13T08:56:03.591Z,27.20
2023-10-13T08:59:06.681Z,31.52
2023-10-13T09:02:23.075Z,26.53
2023-10-13T09:05:45.462Z,27.96
2023-10-13T09:09:20.161Z,28.03
2023-10-13T09:12:46.264Z,31.01
2023-10-13T09:16:00.793Z,30.86
2023-10-13T09:19:06.296Z,29.83
2023-10-13T09:22:08.740Z,26.79
2023-10-13T09:25:15.017Z,24.27
2023-10-13T09:28:19.756Z,24.21
2023-10-13T09:31:27.720Z,24.43
2023-10-13T09:34:31.985Z,23.86
2023-10-13T09:37:38.382Z,23.92
2023-10-13T09:40:47.348Z,23.57
2023-10-13T09:43:53.002Z,23.59
2023-10-13T09:47:04.622Z,23.63
2023-10-13T09:50:15.425Z,23.27
2023-10-13T09:53:19.506Z,24.55
2023-10-13T09:56:29.599Z,23.89
2023-10-13T09:59:41.269Z,24.75
2023-10-13T10:02:45.594Z,24.01
2023-10-13T10:06:04.967Z,24.46
2023-10-13T10:09:12.900Z,24.58
2023-10-13T10:12:48.274Z,23.89
2023-10-13T10:15:55.586Z,24.20
2023-10-13T10:19:03.091Z,23.43
2023-10-13T10:22:17.792Z,23.91
2023-10-13T10:25:30.860Z,24.25
2023-10-13T10:28:37.954Z,24.20
2023-10-13T10:31:45.512Z,24.45
2023-10-13T10:34:48.681Z,24.25
2023-10-13T10:37:51.357Z,24.19
2023-10-13T10:40:58.846Z,23.63
2023-10-13T10:44:04.141Z,23.74
2023-10-13T10:47:32.628Z,24.51
2023-10-13T10:50:38.632Z,24.47
2023-10-13T10:53:47.475Z,24.72
2023-10-13T10:56:55.932Z,25.22
2023-10-13T11:00:15.724Z,25.62
2023-10-13T11:03:18.737Z,24.69
2023-10-13T11:06:21.612Z,24.09
2023-10-13T11:09:38.286Z,24.57
2023-10-13T11:12:41.345Z,24.11
2023-10-13T11:15:47.399Z,24.10
2023-10-13T11:18:49.804Z,24.14
2023-10-13T11:21:57.075Z,24.39
2023-10-13T11:25:01.587Z,24.49
2023-10-13T11:28:21.590Z,24.06
2023-10-13T11:31:25.760Z,24.07
2023-10-13T11:34:41.044Z,24.46
2023-10-13T11:41:05.660Z,24.18
2023-10-13T11:44:13.755Z,24.55
2023-10-13T11:47:48.723Z,24.36
2023-10-13T11:50:51.320Z,24.38
2023-10-13T11:53:53.679Z,24.52
2023-10-13T11:56:59.688Z,24.21
2023-10-13T12:00:22.475Z,24.43
2023-10-13T12:03:43.383Z,24.54
2023-10-13T12:06:45.802Z,24.67
2023-10-13T12:09:55.816Z,24.91
2023-10-13T12:12:59.801Z,24.71
2023-10-13T12:16:09.583Z,24.78
2023-10-13T12:19:12.829Z,24.80
2023-10-13T12:22:26.345Z,25.00
2023-10-13T12:25:34.475Z,25.32
2023-10-13T12:28:42.617Z,25.28
2023-10-13T12:31:52.358Z,25.19
2023-10-13T12:35:00.705Z,25.25
2023-10-13T12:38:06.726Z,25.40
2023-10-13T12:41:34.445Z,25.30
2023-10-13T12:44:57.036Z,25.53
2023-10-13T12:48:17.938Z,25.34
2023-10-13T12:51:21.405Z,25.24
2023-10-13T12:54:36.233Z,25.28
2023-10-13T12:57:44.528Z,25.28
2023-10-13T13:00:50.304Z,25.05
2023-10-13T13:03:57.427Z,25.16
2023-10-13T13:06:59.882Z,25.03
2023-10-13T13:10:02.302Z,25.12
2023-10-13T13:13:05.676Z,25.14
2023-10-13T13:16:09.105Z,25.06
2023-10-13T13:19:11.527Z,25.10
2023-10-13T13:22:14.069Z,25.16
2023-10-13T13:25:19.268Z,25.09
2023-10-13T13:28:24.890Z,24.92
2023-10-13T13:31:30.358Z,24.81
2023-10-13T13:34:32.903Z,24.48
2023-10-13T13:37:36.038Z,24.09
2023-10-13T13:40:39.418Z,24.54
2023-10-13T13:43:51.160Z,24.42
2023-10-13T13:46:54.586Z,24.51
2023-10-13T13:49:57.201Z,24.60
2023-10-13T13:53:01.443Z,24.87
2023-10-13T13:56:04.332Z,24.96
2023-10-13T13:59:10.503Z,24.94
2023-10-13T14:02:21.965Z,24.81
2023-10-13T14:05:24.585Z,24.72
2023-10-13T14:08:28.596Z,24.81
2023-10-13T14:11:41.342Z,24.80
2023-10-13T14:14:51.170Z,24.21
2023-10-13T14:17:53.602Z,24.11
2023-10-13T14:20:57.290Z,23.88
2023-10-13T14:24:01.998Z,24.17
2023-10-13T14:27:19.080Z,24.12
2023-10-13T14:30:22.836Z,24.11
2023-10-13T14:33:27.010Z,24.07
2023-10-13T14:36:30.212Z,23.91
2023-10-13T14:39:35.551Z,23.80
2023-10-13T14:42:37.943Z,23.67
2023-10-13T14:45:40.316Z,23.52
2023-10-13T14:48:45.732Z,23.53
2023-10-13T14:51:48.258Z,23.54
2023-10-13T14:54:56.444Z,23.54
2023-10-13T14:57:59.499Z,23.65
2023-10-13T15:01:02.212Z,23.65
2023-10-13T15:04:06.120Z,23.57
2023-10-13T15:07:08.802Z,23.44
2023-10-13T15:10:15.928Z,23.37
2023-10-13T15:13:19.804Z,23.28
2023-10-13T15:16:24.957Z,23.20
2023-10-13T15:19:27.450Z,23.10
2023-10-13T15:22:29.991Z,23.04
2023-10-13T15:25:42.852Z,22.88
2023-10-13T15:28:54.367Z,22.69
2023-10-13T15:32:02.534Z,22.57
2023-10-13T15:35:05.634Z,22.33
2023-10-13T15:38:08.274Z,22.14
2023-10-13T15:41:10.734Z,21.68
2023-10-13T15:44:14.389Z,21.49
2023-10-13T15:50:23.288Z,20.95
2023-10-13T15:53:26.751Z,20.91
2023-10-13T15:56:29.239Z,20.74
2023-10-13T15:59:31.692Z,20.36
2023-10-13T16:02:34.168Z,20.28
2023-10-13T16:05:38.371Z,19.98
2023-10-13T16:08:44.368Z,19.91
2023-10-13T16:11:47.338Z,20.13
2023-10-13T16:14:49.730Z,20.40
2023-10-13T16:17:54.813Z,20.48
2023-10-13T16:20:57.397Z,20.59
2023-10-13T16:23:59.971Z,20.80
2023-10-13T16:27:02.440Z,20.79
2023-10-13T16:30:05.235Z,20.67
2023-10-13T16:33:07.753Z,20.35
2023-10-13T16:36:11.402Z,20.17
2023-10-13T16:39:16.314Z,20.01
2023-10-13T16:42:19.143Z,19.89
2023-10-13T16:45:22.077Z,19.54
2023-10-13T16:48:25.422Z,19.52
2023-10-13T16:51:30.349Z,19.45
2023-10-13T16:54:32.795Z,19.75
2023-10-13T16:57:35.447Z,19.70
2023-10-13T17:00:38.458Z,19.40
2023-10-13T17:03:42.123Z,19.18
2023-10-13T17:06:44.810Z,18.95
2023-10-13T17:09:47.321Z,18.74
2023-10-13T17:12:49.769Z,18.87
2023-10-13T17:15:52.356Z,18.39
2023-10-13T17:18:56.019Z,18.39
2023-10-13T17:21:59.389Z,17.95
2023-10-13T17:25:02.241Z,17.60
2023-10-13T17:28:14.083Z,17.93
2023-10-13T17:31:17.557Z,17.93
2023-10-13T17:34:20.275Z,18.28
2023-10-13T17:37:22.882Z,18.33
2023-10-13T17:40:27.079Z,17.88
2023-10-13T17:43:29.503Z,17.96
2023-10-13T17:46:32.093Z,17.97
2023-10-13T17:49:34.602Z,17.72
2023-10-13T17:52:37.978Z,17.41
2023-10-13T17:55:40.912Z,17.56
2023-10-13T17:58:44.489Z,17.27
2023-10-13T18:01:50.233Z,17.51
2023-10-13T18:04:53.382Z,17.44
2023-10-13T18:07:55.868Z,17.52
2023-10-13T18:10:59.962Z,17.41
2023-10-13T18:14:02.339Z,17.23
2023-10-13T18:17:06.875Z,17.22
2023-10-13T18:20:16.359Z,17.39
2023-10-13T18:23:19.197Z,17.39
2023-10-13T18:26:21.655Z,17.47
2023-10-13T18:29:24.838Z,17.34
2023-10-13T18:32:27.363Z,17.17
2023-10-13T18:35:32.201Z,17.12
2023-10-13T18:38:34.622Z,17.01
2023-10-13T18:41:37.711Z,17.01
2023-10-13T18:44:42.020Z,17.11
2023-10-13T18:47:46.331Z,16.95
2023-10-13T18:50:49.735Z,16.91
2023-10-13T18:53:52.538Z,17.00
2023-10-13T18:56:55.640Z,16.91
2023-10-13T18:59:58.038Z,16.74
2023-10-13T19:03:06.594Z,16.67
2023-10-13T19:06:09.887Z,16.55
2023-10-13T19:09:13.023Z,16.39
2023-10-13T19:12:15.492Z,16.34
2023-10-13T19:15:18.056Z,16.71
2023-10-13T19:18:20.606Z,17.06
2023-10-13T19:21:22.973Z,17.13
2023-10-13T19:24:25.958Z,17.16
2023-10-13T19:27:28.411Z,17.53
2023-10-13T19:30:34.010Z,17.54
2023-10-13T19:33:37.693Z,17.56
2023-10-13T19:36:40.134Z,17.57
2023-10-13T19:39:43.632Z,17.63
2023-10-13T19:42:46.528Z,17.70
2023-10-13T19:45:49.829Z,17.61
2023-10-13T19:48:52.599Z,17.74
2023-10-13T19:51:59.182Z,17.48
2023-10-13T19:55:02.043Z,17.41
2023-10-13T19:58:05.306Z,17.42
2023-10-13T20:01:12.240Z,17.52
2023-10-13T20:04:19.962Z,17.07
2023-10-13T20:07:22.492Z,17.45
2023-10-13T20:10:24.941Z,17.56
2023-10-13T20:13:27.450Z,17.58
2023-10-13T20:16:31.146Z,17.71
2023-10-13T20:19:33.897Z,17.65
2023-10-13T20:22:39.840Z,17.70
2023-10-13T20:25:43.525Z,17.60
2023-10-13T20:28:46.070Z,17.61
2023-10-13T20:31:50.258Z,17.39
2023-10-13T20:34:55.274Z,17.42
2023-10-13T20:37:57.710Z,17.20
2023-10-13T20:41:01.845Z,17.11
2023-10-13T20:44:04.519Z,17.11
2023-10-13T20:47:14.269Z,17.13
2023-10-13T20:50:19.595Z,17.05
2023-10-13T20:53:21.996Z,16.84
2023-10-13T20:56:24.468Z,16.78
2023-10-13T20:59:26.975Z,16.87
2023-10-13T21:02:29.437Z,17.04
2023-10-13T21:05:32.956Z,17.26
2023-10-13T21:08:39.116Z,17.39
2023-10-13T21:11:44.690Z,17.34
2023-10-13T21:14:47.665Z,17.41
2023-10-13T21:17:50.638Z,17.42
2023-10-13T21:20:56.357Z,17.46
2023-10-13T21:24:00.473Z,17.59
2023-10-13T21:27:04.387Z,17.47
2023-10-13T21:30:08.805Z,17.20
2023-10-13T21:33:11.276Z,17.45
2023-10-13T21:36:20.010Z,17.29
2023-10-13T21:39:30.882Z,17.25
2023-10-13T21:42:37.191Z,17.32
2023-10-13T21:45:39.678Z,17.23
2023-10-13T21:48:42.150Z,17.19
2023-10-13T21:51:44.746Z,16.97
2023-10-13T21:54:49.933Z,17.04
2023-10-13T21:57:57.221Z,17.00
2023-10-13T22:01:22.370Z,16.89
2023-10-13T22:04:31.683Z,16.84
2023-10-13T22:07:35.241Z,16.71
2023-10-13T22:10:38.505Z,16.67
2023-10-13T22:13:42.069Z,16.58
2023-10-13T22:16:44.702Z,16.47
2023-10-13T22:19:50.537Z,16.42
2023-10-13T22:22:53.839Z,16.42
2023-10-13T22:25:56.386Z,16.37
2023-10-13T22:28:59.704Z,16.23
2023-10-13T22:32:02.453Z,16.18
2023-10-13T22:35:05.258Z,16.11
2023-10-13T22:38:08.251Z,16.11
2023-10-13T22:41:13.116Z,15.99
2023-10-13T22:44:19.993Z,15.90
2023-10-13T22:47:22.407Z,15.82
2023-10-13T22:50:27.917Z,15.81
2023-10-13T22:53:31.178Z,15.86
2023-10-13T22:56:33.658Z,15.93
2023-10-13T22:59:38.851Z,15.86
2023-10-13T23:02:42.004Z,15.82
2023-10-13T23:05:54.590Z,15.90
2023-10-13T23:08:57.212Z,15.81
2023-10-13T23:12:05.887Z,15.81
2023-10-13T23:15:13.722Z,15.47
2023-10-13T23:18:20.019Z,15.66
2023-10-13T23:21:23.063Z,15.53
2023-10-13T23:24:25.483Z,15.42
2023-10-13T23:27:29.861Z,15.43
2023-10-13T23:30:39.778Z,15.41
2023-10-13T23:33:45.547Z,15.30
2023-10-13T23:36:47.965Z,15.01
2023-10-13T23:39:53.939Z,15.00
2023-10-13T23:42:57.618Z,15.15
2023-10-13T23:46:01.217Z,15.02
2023-10-13T23:49:04.677Z,14.82
2023-10-13T23:52:08.684Z,14.90
2023-10-13T23:55:18.761Z,14.83
2023-10-13T23:58:24.815Z,14.89
